Time;durP1;ratioP1;P1;durP2;ratioP2;P2;SDS_P1;SDS_P2;PMS_P1;PMS_P2;Temp;Humidity;BMP_temperature;BMP_pressure;BME280_temperature;BME280_humidity;BME280_pressure;Samples;Min_cycle;Max_cycle;Signal;HPM_P1;HPM_P2
2021/04/04 00:01:04;;;;;;;7.38;3.35;;;2.90;76.50;;;;;;5093310;28;20016;-65
2021/04/04 00:03:31;;;;;;;10.18;3.70;;;2.80;76.30;;;;;;5074667;28;20489;-64
2021/04/04 00:05:57;;;;;;;6.78;3.25;;;2.80;76.30;;;;;;5092812;28;20093;-65
2021/04/04 00:08:22;;;;;;;6.55;3.58;;;2.70;76.10;;;;;;5093124;28;20032;-64
2021/04/04 00:10:48;;;;;;;5.68;2.88;;;2.70;76.90;;;;;;5091269;28;20566;-65
2021/04/04 00:13:14;;;;;;;9.23;3.58;;;2.70;76.70;;;;;;5093168;28;20056;-62
2021/04/04 00:15:41;;;;;;;9.32;3.08;;;2.60;76.30;;;;;;5092858;28;20031;-68
2021/04/04 00:18:07;;;;;;;9.38;3.13;;;2.60;76.00;;;;;;5092368;28;20111;-64
2021/04/04 00:20:33;;;;;;;7.65;2.58;;;2.60;75.80;;;;;;5074915;28;20036;-64
2021/04/04 00:22:59;;;;;;;8.75;3.22;;;2.60;76.30;;;;;;5091577;28;20027;-64
2021/04/04 00:25:24;;;;;;;10.77;2.72;;;2.10;76.90;;;;;;5093404;28;20024;-64
2021/04/04 00:27:50;;;;;;;9.65;4.75;;;2.60;76.50;;;;;;5092132;28;20067;-64
2021/04/04 00:30:18;;;;;;;12.15;4.90;;;2.50;76.00;;;;;;5092752;28;20465;-64
2021/04/04 00:32:44;;;;;;;7.45;3.58;;;2.50;77.70;;;;;;5091832;28;20407;-65
2021/04/04 00:35:12;;;;;;;10.07;3.65;;;2.60;77.20;;;;;;5092889;28;20091;-64
2021/04/04 00:37:38;;;;;;;7.38;3.30;;;2.50;77.60;;;;;;5092620;28;20110;-68
2021/04/04 00:40:30;;;;;;;11.65;3.45;;;2.60;79.40;;;;;;5092196;28;20157;-64
2021/04/04 00:42:56;;;;;;;8.90;3.03;;;2.50;80.50;;;;;;5091915;28;20046;-64
2021/04/04 00:45:31;;;;;;;8.82;3.03;;;2.30;76.90;;;;;;5092535;28;20036;-65
2021/04/04 00:47:57;;;;;;;9.50;3.28;;;2.30;77.40;;;;;;5091684;28;20028;-64
2021/04/04 00:50:27;;;;;;;4.57;2.63;;;2.30;77.80;;;;;;5092595;28;20047;-64
2021/04/04 00:52:53;;;;;;;9.43;3.20;;;2.30;77.90;;;;;;5091802;28;20056;-65
2021/04/04 00:55:20;;;;;;;7.70;2.75;;;2.20;78.00;;;;;;5092259;28;20035;-65
2021/04/04 00:57:46;;;;;;;8.52;3.50;;;2.20;78.30;;;;;;5091774;28;20051;-64
2021/04/04 01:00:15;;;;;;;10.73;3.63;;;2.20;78.60;;;;;;5092529;28;20027;-63
2021/04/04 01:02:41;;;;;;;10.70;3.67;;;2.20;78.80;;;;;;5092562;28;20392;-68
2021/04/04 01:05:10;;;;;;;10.65;3.85;;;2.20;79.20;;;;;;5092691;28;20032;-64
2021/04/04 01:07:35;;;;;;;9.52;3.40;;;2.20;79.40;;;;;;5091528;28;20045;-64
2021/04/04 01:10:04;;;;;;;9.82;3.70;;;2.30;79.10;;;;;;5091518;28;20839;-64
2021/04/04 01:12:39;;;;;;;11.20;3.70;;;2.30;78.90;;;;;;5091921;28;20044;-64
2021/04/04 01:15:15;;;;;;;9.05;3.35;;;2.30;78.80;;;;;;5091576;28;20062;-64
2021/04/04 01:17:43;;;;;;;12.15;3.95;;;2.40;78.30;;;;;;5091902;28;20039;-68
2021/04/04 01:20:27;;;;;;;8.70;3.03;;;2.40;78.30;;;;;;5073467;28;20103;-66
2021/04/04 01:23:00;;;;;;;7.38;3.22;;;2.40;78.20;;;;;;5073200;28;20032;-64
2021/04/04 01:25:33;;;;;;;10.75;3.35;;;2.30;78.40;;;;;;5073426;28;20047;-63
2021/04/04 01:28:02;;;;;;;4.78;2.90;;;2.20;78.90;;;;;;5090914;28;20400;-65
2021/04/04 01:30:38;;;;;;;6.10;3.20;;;2.20;79.20;;;;;;5091808;28;20120;-63
2021/04/04 01:33:05;;;;;;;11.63;3.35;;;2.10;79.80;;;;;;5091498;28;20111;-64
2021/04/04 01:35:34;;;;;;;6.00;3.47;;;2.00;80.40;;;;;;5091916;28;20036;-61
2021/04/04 01:38:01;;;;;;;9.48;3.50;;;1.90;80.80;;;;;;5090938;28;20248;-64
2021/04/04 01:40:32;;;;;;;7.57;3.80;;;1.90;81.30;;;;;;5091799;28;20081;-64
2021/04/04 01:43:01;;;;;;;;;;;1.80;81.70;;;;;;5091201;28;20068;-64
2021/04/04 01:45:26;;;;;;;7.50;3.53;;;1.80;82.90;;;;;;5091633;28;19930;-64
2021/04/04 01:47:53;;;;;;;9.52;4.20;;;1.80;83.60;;;;;;5090403;28;20544;-64
2021/04/04 01:50:19;;;;;;;8.45;3.33;;;1.80;83.40;;;;;;5091105;28;20153;-64
2021/04/04 01:52:49;;;;;;;10.95;3.85;;;1.80;83.60;;;;;;5072757;28;20380;-65
2021/04/04 01:55:15;;;;;;;6.72;3.65;;;1.80;83.90;;;;;;5073084;28;20024;-63
2021/04/04 01:57:41;;;;;;;7.70;3.47;;;1.70;84.50;;;;;;5091694;28;20031;-68
2021/04/04 02:00:13;;;;;;;7.15;3.50;;;1.70;84.90;;;;;;5090482;28;20081;-67
2021/04/04 02:02:38;;;;;;;6.85;3.28;;;1.70;84.80;;;;;;5090921;28;20165;-64
2021/04/04 02:05:09;;;;;;;7.93;3.42;;;1.70;84.90;;;;;;5072372;28;20041;-65
2021/04/04 02:07:40;;;;;;;7.53;3.88;;;1.70;85.40;;;;;;5073189;28;20103;-65
2021/04/04 02:10:11;;;;;;;6.20;3.35;;;1.70;85.70;;;;;;5090361;28;20028;-65
2021/04/04 02:12:38;;;;;;;10.10;3.30;;;1.60;85.80;;;;;;5091489;28;20074;-64
2021/04/04 02:15:08;;;;;;;9.02;3.53;;;1.60;86.40;;;;;;5090244;28;20028;-67
2021/04/04 02:17:36;;;;;;;9.88;3.20;;;1.50;87.00;;;;;;5091472;28;20519;-65
2021/04/04 02:20:05;;;;;;;9.65;4.00;;;1.50;87.20;;;;;;5096157;28;20028;-65
2021/04/04 02:22:32;;;;;;;7.80;3.53;;;1.50;87.20;;;;;;5098159;28;20040;-65
2021/04/04 02:24:58;;;;;;;5.63;3.22;;;1.50;87.30;;;;;;5097095;28;20081;-65
2021/04/04 02:27:25;;;;;;;5.95;3.80;;;1.50;87.30;;;;;;5079761;28;20035;-64
2021/04/04 02:29:51;;;;;;;8.93;3.90;;;1.50;87.50;;;;;;5097364;28;20028;-65
2021/04/04 02:32:19;;;;;;;13.00;3.58;;;1.50;87.50;;;;;;5097522;28;20392;-65
2021/04/04 02:34:46;;;;;;;8.25;3.55;;;1.40;87.50;;;;;;5096782;28;20027;-69
2021/04/04 02:37:14;;;;;;;10.65;4.18;;;1.40;87.70;;;;;;5097994;28;20020;-66
2021/04/04 02:39:50;;;;;;;6.63;3.70;;;1.30;88.00;;;;;;5097875;28;20051;-65
2021/04/04 02:42:20;;;;;;;7.57;3.60;;;1.30;88.80;;;;;;5098099;28;20369;-63
2021/04/04 02:44:48;;;;;;;10.80;3.42;;;1.30;89.00;;;;;;5089286;28;20027;-69
2021/04/04 02:47:17;;;;;;;6.95;3.30;;;1.20;89.80;;;;;;5098139;28;20024;-64
2021/04/04 02:49:47;;;;;;;10.45;4.03;;;1.20;90.20;;;;;;5079081;28;20032;-69
2021/04/04 02:52:16;;;;;;;8.13;3.53;;;1.20;90.50;;;;;;5092118;28;20042;-65
2021/04/04 02:54:43;;;;;;;8.33;3.10;;;1.20;90.40;;;;;;5097160;28;20441;-67
2021/04/04 02:57:09;;;;;;;5.40;3.28;;;1.20;90.50;;;;;;5097479;28;20117;-65
2021/04/04 02:59:47;;;;;;;7.57;3.38;;;1.20;90.40;;;;;;5097502;28;20090;-63
2021/04/04 03:02:16;;;;;;;8.02;3.03;;;1.10;90.40;;;;;;5097689;28;20393;-65
2021/04/04 03:04:44;;;;;;;10.20;4.13;;;1.10;90.70;;;;;;5097608;28;20024;-70
2021/04/04 03:07:12;;;;;;;9.25;4.40;;;1.00;91.40;;;;;;5097302;28;20093;-65
2021/04/04 03:09:43;;;;;;;9.80;3.80;;;1.00;91.40;;;;;;5078535;28;20052;-66
2021/04/04 03:12:11;;;;;;;9.00;3.90;;;1.00;91.50;;;;;;5078510;28;20052;-66
2021/04/04 03:14:39;;;;;;;8.23;3.75;;;0.90;91.40;;;;;;5097653;28;20036;-62
2021/04/04 03:17:05;;;;;;;8.88;3.25;;;0.90;91.30;;;;;;5096628;28;20080;-64
2021/04/04 03:19:34;;;;;;;6.82;3.50;;;0.90;91.20;;;;;;5097321;28;20039;-65
2021/04/04 03:22:01;;;;;;;7.88;3.35;;;0.90;91.70;;;;;;5096052;28;20043;-65
2021/04/04 03:24:29;;;;;;;10.75;3.40;;;0.80;92.00;;;;;;5097514;28;20028;-64
2021/04/04 03:26:55;;;;;;;7.45;3.50;;;0.80;91.90;;;;;;5096518;28;20386;-65
2021/04/04 03:29:21;;;;;;;7.00;3.17;;;0.80;91.80;;;;;;5096566;28;20028;-65
2021/04/04 03:31:47;;;;;;;5.65;3.13;;;0.70;91.70;;;;;;5092426;28;20094;-68
2021/04/04 03:34:14;;;;;;;6.50;2.88;;;0.70;91.80;;;;;;5093980;28;20024;-65
2021/04/04 03:36:40;;;;;;;12.52;3.42;;;0.60;92.00;;;;;;5093937;28;20051;-65
2021/04/04 03:39:07;;;;;;;6.32;3.28;;;0.60;92.10;;;;;;5093091;28;20606;-65
2021/04/04 03:41:34;;;;;;;8.23;3.20;;;0.60;92.30;;;;;;5093802;28;20031;-63
2021/04/04 03:44:09;;;;;;;7.32;3.40;;;0.60;92.20;;;;;;5093015;28;20032;-65
2021/04/04 03:46:36;;;;;;;9.65;3.55;;;0.60;92.20;;;;;;5093398;28;20044;-65
2021/04/04 03:49:02;;;;;;;9.20;4.00;;;0.60;93.20;;;;;;5092974;28;20124;-65
2021/04/04 03:51:30;;;;;;;13.77;3.47;;;0.60;92.90;;;;;;5093386;28;20469;-65
2021/04/04 03:53:58;;;;;;;10.88;3.47;;;0.50;92.90;;;;;;5092910;28;20032;-66
2021/04/04 03:56:30;;;;;;;9.30;3.90;;;0.50;93.00;;;;;;5093646;28;20032;-65
2021/04/04 03:59:03;;;;;;;8.25;3.70;;;0.50;92.70;;;;;;5092710;28;20020;-65
2021/04/04 04:01:32;;;;;;;5.43;3.15;;;0.50;93.10;;;;;;5085350;28;20414;-65
2021/04/04 04:03:59;;;;;;;8.05;3.85;;;0.40;92.90;;;;;;5092414;28;20020;-66
2021/04/04 04:06:26;;;;;;;13.50;4.40;;;0.40;93.00;;;;;;5092961;28;20024;-65
2021/04/04 04:08:52;;;;;;;8.35;3.60;;;0.40;93.60;;;;;;5092583;28;20024;-65
2021/04/04 04:11:18;;;;;;;9.35;3.60;;;0.30;93.70;;;;;;5092611;28;20044;-66
2021/04/04 04:13:44;;;;;;;7.43;3.50;;;0.30;94.00;;;;;;5085030;28;20079;-66
2021/04/04 04:16:11;;;;;;;9.77;4.22;;;0.20;93.80;;;;;;5092353;28;20101;-65
2021/04/04 04:18:42;;;;;;;7.15;3.50;;;0.20;94.60;;;;;;5092875;28;20045;-65
2021/04/04 04:21:10;;;;;;;10.13;4.22;;;0.20;94.50;;;;;;5074137;28;20032;-65
2021/04/04 04:23:37;;;;;;;9.25;4.00;;;0.20;94.90;;;;;;5085671;28;20362;-65
2021/04/04 04:26:03;;;;;;;4.88;3.33;;;0.10;95.30;;;;;;5091767;28;20046;-65
2021/04/04 04:28:31;;;;;;;10.20;3.60;;;0.10;95.30;;;;;;5093213;28;20032;-65
2021/04/04 04:30:56;;;;;;;10.48;3.75;;;0.10;95.40;;;;;;5092043;28;20034;-68
2021/04/04 04:33:23;;;;;;;6.28;3.00;;;0.10;95.90;;;;;;5093080;28;20032;-66
2021/04/04 04:35:49;;;;;;;8.93;3.75;;;0.10;95.90;;;;;;5074370;28;20062;-69
2021/04/04 04:38:18;;;;;;;8.98;3.10;;;0.10;95.90;;;;;;5092817;28;20401;-65
2021/04/04 04:40:44;;;;;;;10.32;3.83;;;0.10;96.00;;;;;;5092896;28;20495;-64
2021/04/04 04:43:14;;;;;;;5.57;3.22;;;0.10;96.10;;;;;;5091811;28;20036;-65
2021/04/04 04:45:40;;;;;;;11.48;3.75;;;0.10;96.30;;;;;;5092746;28;20032;-65
2021/04/04 04:48:08;;;;;;;9.63;3.45;;;0.00;96.40;;;;;;5092283;28;20036;-65
2021/04/04 04:50:35;;;;;;;8.98;3.78;;;0.00;96.20;;;;;;5092253;28;20396;-65
2021/04/04 04:53:02;;;;;;;12.07;3.75;;;0.00;96.90;;;;;;5091671;28;20040;-65
2021/04/04 04:55:28;;;;;;;9.55;3.47;;;-0.10;97.00;;;;;;5092482;28;20366;-65
2021/04/04 04:57:58;;;;;;;8.63;4.10;;;-0.10;96.80;;;;;;5092372;28;20039;-65
2021/04/04 05:00:25;;;;;;;6.65;3.83;;;-0.20;96.90;;;;;;5092355;28;20422;-64
2021/04/04 05:02:51;;;;;;;11.07;4.10;;;-0.20;97.40;;;;;;5091820;28;20036;-66
2021/04/04 05:05:17;;;;;;;6.47;3.78;;;-0.20;98.00;;;;;;5092670;28;20032;-65
2021/04/04 05:07:44;;;;;;;5.85;3.58;;;-0.20;98.40;;;;;;5092018;28;20107;-65
2021/04/04 05:10:12;;;;;;;8.05;3.35;;;-0.20;98.60;;;;;;5091311;28;20024;-65
2021/04/04 05:12:54;;;;;;;8.82;3.78;;;-0.20;98.30;;;;;;5061165;28;20452;-65
2021/04/04 05:15:23;;;;;;;8.13;3.78;;;-0.20;98.10;;;;;;5052313;28;20035;-65
2021/04/04 05:17:48;;;;;;;8.15;4.13;;;-0.20;98.10;;;;;;5052437;28;20555;-67
2021/04/04 05:20:17;;;;;;;14.23;4.10;;;-0.20;98.20;;;;;;5070970;28;20040;-65
2021/04/04 05:22:43;;;;;;;9.30;3.97;;;-0.20;98.70;;;;;;5071497;28;20436;-65
2021/04/04 05:25:09;;;;;;;11.32;3.80;;;-0.20;98.80;;;;;;5069016;28;20051;-64
2021/04/04 05:27:35;;;;;;;9.80;3.72;;;-0.10;98.60;;;;;;5056695;28;20033;-65
2021/04/04 05:30:03;;;;;;;10.65;3.95;;;0.00;98.40;;;;;;5051201;28;20032;-65
2021/04/04 05:32:29;;;;;;;12.50;3.90;;;0.00;98.40;;;;;;5069359;28;20059;-64
2021/04/04 05:34:55;;;;;;;11.32;4.45;;;0.10;97.90;;;;;;5070780;28;20025;-64
2021/04/04 05:37:20;;;;;;;9.68;4.50;;;0.10;97.70;;;;;;5062209;28;20028;-64
2021/04/04 05:39:46;;;;;;;12.15;4.97;;;0.20;97.70;;;;;;5071247;28;20028;-64
2021/04/04 05:42:12;;;;;;;16.90;6.25;;;0.20;97.80;;;;;;5063102;28;20025;-63
2021/04/04 05:44:41;;;;;;;11.02;5.68;;;0.30;98.70;;;;;;5070374;28;20500;-64
2021/04/04 05:47:16;;;;;;;10.07;5.18;;;0.40;98.10;;;;;;5054944;28;20351;-66
2021/04/04 05:50:05;;;;;;;11.35;5.32;;;0.50;97.80;;;;;;5058514;28;20033;-63
2021/04/04 05:52:38;;;;;;;11.57;6.32;;;0.60;97.10;;;;;;5051538;28;20033;-63
2021/04/04 05:55:25;;;;;;;11.00;5.00;;;0.60;96.70;;;;;;5053334;28;20095;-62
2021/04/04 05:58:10;;;;;;;11.95;5.10;;;0.70;96.20;;;;;;5071397;28;20033;-68
2021/04/04 06:00:42;;;;;;;9.48;4.93;;;0.70;95.80;;;;;;5059146;28;20016;-63
2021/04/04 06:03:45;;;;;;;15.48;5.68;;;0.80;95.70;;;;;;5063404;28;20028;-65
2021/04/04 06:06:41;;;;;;;12.13;6.00;;;0.90;95.60;;;;;;5071508;28;20105;-63
2021/04/04 06:09:48;;;;;;;10.88;5.40;;;1.00;94.90;;;;;;5047033;28;20458;-63
2021/04/04 06:12:37;;;;;;;14.48;6.03;;;1.10;94.70;;;;;;5077653;28;20052;-63
2021/04/04 06:15:16;;;;;;;12.85;6.05;;;1.20;94.10;;;;;;5091739;28;20055;-62
2021/04/04 06:18:06;;;;;;;17.10;5.85;;;1.30;93.50;;;;;;5091723;28;20020;-64
2021/04/04 06:20:49;;;;;;;11.15;6.32;;;1.40;93.00;;;;;;5091592;28;20085;-64
2021/04/04 06:23:18;;;;;;;15.55;6.10;;;1.60;92.50;;;;;;5072847;28;20387;-64
2021/04/04 06:26:08;;;;;;;11.60;5.95;;;1.70;92.30;;;;;;5090904;28;20028;-64
2021/04/04 06:29:10;;;;;;;12.68;6.40;;;1.80;91.70;;;;;;5091938;28;20058;-65
2021/04/04 06:32:06;;;;;;;13.90;6.47;;;1.90;91.20;;;;;;5091529;28;20028;-65
2021/04/04 06:34:43;;;;;;;17.52;7.50;;;2.00;90.40;;;;;;5092036;28;20047;-64
2021/04/04 06:37:41;;;;;;;10.23;5.97;;;2.10;90.00;;;;;;5082730;28;20024;-65
2021/04/04 06:40:12;;;;;;;12.68;6.57;;;2.20;89.30;;;;;;5090883;28;20419;-67
2021/04/04 06:42:52;;;;;;;16.52;6.05;;;2.40;88.20;;;;;;5065076;28;20047;-66
2021/04/04 06:45:22;;;;;;;;;;;2.50;87.20;;;;;;5073372;28;20120;-64
2021/04/04 06:48:06;;;;;;;13.02;6.35;;;2.60;86.20;;;;;;5078625;28;19927;-65
2021/04/04 06:50:43;;;;;;;11.48;6.22;;;2.80;85.10;;;;;;5075357;28;20028;-64
2021/04/04 06:53:30;;;;;;;16.35;7.40;;;2.90;84.10;;;;;;5091063;28;20024;-63
2021/04/04 06:56:23;;;;;;;12.82;6.75;;;3.10;82.40;;;;;;5091402;28;20024;-67
2021/04/04 06:59:24;;;;;;;14.52;6.78;;;3.30;81.40;;;;;;5094066;28;20473;-66
2021/04/04 07:02:07;;;;;;;14.77;6.80;;;3.50;80.80;;;;;;5095180;28;20100;-64
2021/04/04 07:04:40;;;;;;;18.75;7.57;;;3.70;80.40;;;;;;5093468;28;20036;-65
2021/04/04 07:07:09;;;;;;;12.82;6.75;;;3.80;78.90;;;;;;5098137;28;20028;-63
2021/04/04 07:09:34;;;;;;;12.07;6.88;;;3.90;78.40;;;;;;5081939;28;20540;-64
2021/04/04 07:12:44;;;;;;;16.38;7.40;;;4.10;78.40;;;;;;5098479;28;20078;-66
2021/04/04 07:15:17;;;;;;;12.85;6.80;;;4.30;77.00;;;;;;5074000;28;20062;-65
2021/04/04 07:17:55;;;;;;;20.83;7.25;;;4.30;77.30;;;;;;5098474;28;20031;-63
2021/04/04 07:20:41;;;;;;;14.27;6.70;;;4.50;75.60;;;;;;5099556;28;20028;-63
2021/04/04 07:23:40;;;;;;;9.40;6.10;;;4.50;75.30;;;;;;5097165;28;20046;-66
2021/04/04 07:26:17;;;;;;;12.45;6.40;;;4.70;74.00;;;;;;5093698;28;20097;-65
2021/04/04 07:28:58;;;;;;;16.83;7.53;;;4.70;73.60;;;;;;5094082;28;20474;-65
2021/04/04 07:31:47;;;;;;;13.63;6.82;;;4.80;73.90;;;;;;5076390;28;20409;-68
2021/04/04 07:34:26;;;;;;;18.42;6.53;;;5.00;72.30;;;;;;5093448;28;20032;-62
2021/04/04 07:36:56;;;;;;;13.48;6.80;;;5.00;71.90;;;;;;5076209;28;20074;-68
2021/04/04 07:39:44;;;;;;;12.50;6.83;;;5.10;71.00;;;;;;5093333;28;20081;-63
2021/04/04 07:42:20;;;;;;;14.25;6.30;;;5.30;69.80;;;;;;5093103;28;20500;-69
2021/04/04 07:45:13;;;;;;;11.90;6.20;;;5.40;69.90;;;;;;5076157;28;20061;-69
2021/04/04 07:48:25;;;;;;;12.35;6.25;;;5.50;69.90;;;;;;5093801;28;20069;-66
2021/04/04 07:51:20;;;;;;;10.95;6.28;;;5.60;68.90;;;;;;5043145;28;20032;-70
2021/04/04 07:53:51;;;;;;;12.38;6.28;;;5.80;68.50;;;;;;5094585;28;20028;-69
2021/04/04 07:56:24;;;;;;;15.55;6.43;;;5.90;68.40;;;;;;5094019;28;20668;-67
2021/04/04 07:58:59;;;;;;;12.27;6.60;;;6.00;67.60;;;;;;5093375;28;20032;-67
2021/04/04 08:02:00;;;;;;;13.10;6.40;;;6.20;66.60;;;;;;5092509;28;20054;-68
2021/04/04 08:04:53;;;;;;;12.45;5.95;;;6.40;66.40;;;;;;5068613;28;20097;-66
2021/04/04 08:07:46;;;;;;;12.45;6.78;;;6.50;65.10;;;;;;5085743;28;20028;-64
2021/04/04 08:10:34;;;;;;;13.52;6.50;;;6.60;65.30;;;;;;5072390;28;20020;-63
2021/04/04 08:13:21;;;;;;;10.80;5.63;;;6.70;64.70;;;;;;5091760;28;20051;-64
2021/04/04 08:16:18;;;;;;;10.25;6.15;;;6.80;64.90;;;;;;5092331;28;20032;-63
2021/04/04 08:18:45;;;;;;;11.60;5.60;;;6.90;63.90;;;;;;5071432;28;20448;-72
2021/04/04 08:21:23;;;;;;;9.85;5.05;;;7.00;63.40;;;;;;5092525;28;20028;-78
2021/04/04 08:24:02;;;;;;;9.10;5.10;;;7.10;63.60;;;;;;5092303;28;20032;-69
2021/04/04 08:26:41;;;;;;;11.85;5.60;;;7.20;62.60;;;;;;5075794;28;20489;-70
2021/04/04 08:29:10;;;;;;;10.77;5.53;;;7.20;62.80;;;;;;5075248;28;20031;-68
2021/04/04 08:31:47;;;;;;;10.88;5.53;;;7.30;62.80;;;;;;5095756;28;20028;-74
2021/04/04 08:34:25;;;;;;;11.38;5.93;;;7.40;62.30;;;;;;5092673;28;20577;-70
2021/04/04 08:37:26;;;;;;;17.00;6.63;;;7.60;61.90;;;;;;5092783;28;20469;-64
2021/04/04 08:39:57;;;;;;;9.00;5.50;;;7.70;61.70;;;;;;5091566;28;20097;-64
2021/04/04 08:42:23;;;;;;;11.63;6.38;;;7.70;62.20;;;;;;5092482;28;20446;-64
2021/04/04 08:45:15;;;;;;;13.82;5.50;;;7.80;61.90;;;;;;5091736;28;20139;-64
2021/04/04 08:47:47;;;;;;;11.20;5.43;;;8.00;61.90;;;;;;5091465;28;20063;-62
2021/04/04 08:50:17;;;;;;;12.75;5.57;;;8.10;61.60;;;;;;5092129;28;20399;-62
2021/04/04 08:53:07;;;;;;;12.60;5.70;;;8.20;62.10;;;;;;5074739;28;20494;-65
2021/04/04 08:55:35;;;;;;;10.95;5.03;;;8.40;60.10;;;;;;5092595;28;20028;-63
2021/04/04 08:58:02;;;;;;;14.85;5.75;;;8.50;59.90;;;;;;5090772;28;20050;-67
2021/04/04 09:00:30;;;;;;;12.77;5.50;;;8.60;60.70;;;;;;5092276;28;20047;-63
2021/04/04 09:02:57;;;;;;;9.45;5.10;;;8.80;58.50;;;;;;5092332;28;20427;-65
2021/04/04 09:05:30;;;;;;;13.38;5.70;;;8.80;59.20;;;;;;5091124;28;20410;-64
2021/04/04 09:07:59;;;;;;;14.13;5.90;;;8.90;58.60;;;;;;5091757;28;20048;-65
2021/04/04 09:10:28;;;;;;;15.15;6.03;;;9.00;58.60;;;;;;5090637;28;20035;-62
2021/04/04 09:12:55;;;;;;;11.35;5.72;;;9.10;57.70;;;;;;5073656;28;20020;-65
2021/04/04 09:15:21;;;;;;;12.60;6.22;;;9.20;58.40;;;;;;5090464;28;20473;-65
2021/04/04 09:17:57;;;;;;;14.77;7.00;;;9.30;57.60;;;;;;5089680;28;20037;-67
2021/04/04 09:20:38;;;;;;;14.23;5.90;;;9.40;57.60;;;;;;5088216;28;20036;-67
2021/04/04 09:23:04;;;;;;;13.93;5.53;;;9.60;56.40;;;;;;5084724;28;20040;-70
2021/04/04 09:25:31;;;;;;;12.05;5.63;;;9.80;54.70;;;;;;5092231;28;20077;-72
2021/04/04 09:27:58;;;;;;;13.10;5.28;;;9.90;54.50;;;;;;5090735;28;20123;-71
2021/04/04 09:30:34;;;;;;;11.85;5.70;;;10.00;54.50;;;;;;5091294;28;20032;-70
2021/04/04 09:33:07;;;;;;;9.85;4.60;;;10.10;54.50;;;;;;5091294;28;20032;-67
2021/04/04 09:35:33;;;;;;;11.10;5.35;;;10.20;55.00;;;;;;5092029;28;20028;-65
2021/04/04 09:38:02;;;;;;;9.02;4.63;;;10.30;52.10;;;;;;5091178;28;20499;-71
2021/04/04 09:40:29;;;;;;;11.40;4.97;;;10.30;51.70;;;;;;5091827;28;20028;-68
2021/04/04 09:43:04;;;;;;;9.80;4.43;;;10.30;52.60;;;;;;5091995;28;20781;-66
2021/04/04 09:45:29;;;;;;;8.15;3.88;;;10.40;51.40;;;;;;5082962;28;20499;-68
2021/04/04 09:47:55;;;;;;;9.88;3.97;;;10.40;49.90;;;;;;5091665;28;20024;-66
2021/04/04 09:50:29;;;;;;;7.57;3.47;;;10.50;49.80;;;;;;5090553;28;20035;-65
2021/04/04 09:52:55;;;;;;;9.45;3.72;;;10.60;48.60;;;;;;5072560;28;20419;-65
2021/04/04 09:55:23;;;;;;;6.35;3.20;;;10.70;50.20;;;;;;5072351;28;20206;-68
2021/04/04 09:57:51;;;;;;;7.05;3.63;;;10.80;47.20;;;;;;5091505;28;20062;-64
2021/04/04 10:00:20;;;;;;;5.80;3.08;;;10.80;47.40;;;;;;5090731;28;20020;-65
2021/04/04 10:02:47;;;;;;;5.30;2.60;;;10.80;46.80;;;;;;5090929;28;20044;-68
2021/04/04 10:05:27;;;;;;;6.90;3.50;;;10.90;43.80;;;;;;5090522;28;20465;-65
2021/04/04 10:07:53;;;;;;;6.63;3.38;;;11.00;45.40;;;;;;5091308;28;20020;-65
2021/04/04 10:10:30;;;;;;;5.30;3.30;;;11.00;45.70;;;;;;5089547;28;20024;-67
2021/04/04 10:12:58;;;;;;;4.82;2.85;;;11.00;46.30;;;;;;5090693;28;20496;-65
2021/04/04 10:15:23;;;;;;;9.35;4.38;;;11.20;45.40;;;;;;5090342;28;20114;-66
2021/04/04 10:17:58;;;;;;;7.10;4.05;;;11.20;45.70;;;;;;5091301;28;20107;-64
2021/04/04 10:20:36;;;;;;;8.70;3.72;;;11.30;46.00;;;;;;5072474;28;20032;-68
2021/04/04 10:23:03;;;;;;;6.55;3.38;;;11.40;46.10;;;;;;5090095;28;20028;-74
2021/04/04 10:25:29;;;;;;;8.60;3.53;;;11.50;46.20;;;;;;5072829;28;20040;-66
2021/04/04 10:28:02;;;;;;;9.38;3.17;;;11.60;43.80;;;;;;5091041;28;20028;-66
2021/04/04 10:30:30;;;;;;;7.60;3.58;;;11.70;43.30;;;;;;5090890;28;20036;-66
2021/04/04 10:33:17;;;;;;;6.85;3.50;;;11.60;42.90;;;;;;5073357;28;20048;-66
2021/04/04 10:35:44;;;;;;;6.10;3.25;;;11.60;43.30;;;;;;5073481;28;20036;-64
2021/04/04 10:38:18;;;;;;;7.03;3.40;;;11.60;44.00;;;;;;5090419;28;20048;-69
2021/04/04 10:40:55;;;;;;;5.90;3.00;;;11.60;44.20;;;;;;5054294;28;20032;-73
2021/04/04 10:43:23;;;;;;;6.53;3.20;;;11.70;43.70;;;;;;5075941;28;20032;-65
2021/04/04 10:46:07;;;;;;;5.90;3.58;;;11.90;43.00;;;;;;5094805;28;20028;-65
2021/04/04 10:48:40;;;;;;;5.97;2.70;;;12.10;43.00;;;;;;5095405;28;20046;-66
2021/04/04 10:51:08;;;;;;;5.78;2.78;;;12.20;41.50;;;;;;5094293;28;20024;-66
2021/04/04 10:53:35;;;;;;;7.43;3.03;;;12.30;40.10;;;;;;5094682;28;20040;-65
2021/04/04 10:56:01;;;;;;;5.43;3.20;;;12.10;41.60;;;;;;5094342;28;20032;-67
2021/04/04 10:58:28;;;;;;;5.85;2.80;;;11.90;41.50;;;;;;5094527;28;20043;-65
2021/04/04 11:00:56;;;;;;;8.05;3.00;;;11.50;42.10;;;;;;5095083;28;20016;-65
2021/04/04 11:03:23;;;;;;;7.57;3.33;;;11.40;44.00;;;;;;5085528;28;20049;-65
2021/04/04 11:05:49;;;;;;;4.97;2.75;;;11.60;43.30;;;;;;5094180;28;20020;-65
2021/04/04 11:08:16;;;;;;;6.32;4.07;;;11.80;43.00;;;;;;5075637;28;20047;-65
2021/04/04 11:10:42;;;;;;;6.97;3.58;;;12.20;42.30;;;;;;5094113;28;20123;-64
2021/04/04 11:13:08;;;;;;;8.27;3.83;;;12.50;41.60;;;;;;5074987;28;20032;-65
2021/04/04 11:15:39;;;;;;;6.18;2.97;;;12.90;40.00;;;;;;5094545;28;20100;-66
2021/04/04 11:18:15;;;;;;;8.02;2.60;;;13.20;39.90;;;;;;5075201;28;20469;-66
2021/04/04 11:20:46;;;;;;;4.63;2.80;;;13.50;37.20;;;;;;5076180;28;20457;-66
2021/04/04 11:23:17;;;;;;;4.13;2.70;;;13.50;37.50;;;;;;5092842;28;20056;-65
2021/04/04 11:25:43;;;;;;;5.95;2.80;;;13.50;40.00;;;;;;5085950;28;20488;-63
2021/04/04 11:28:20;;;;;;;3.88;3.03;;;13.70;39.20;;;;;;5093021;28;20032;-65
2021/04/04 11:30:47;;;;;;;7.40;3.67;;;13.90;38.80;;;;;;5075761;28;20044;-65
2021/04/04 11:33:16;;;;;;;4.03;2.80;;;14.20;38.30;;;;;;5075088;28;20066;-67
2021/04/04 11:36:08;;;;;;;7.25;2.78;;;14.20;37.40;;;;;;5093944;28;20028;-64
2021/04/04 11:38:47;;;;;;;4.25;2.47;;;14.40;37.30;;;;;;5094241;28;20032;-65
2021/04/04 11:41:12;;;;;;;4.60;2.65;;;14.40;36.70;;;;;;5093460;28;20070;-68
2021/04/04 11:43:39;;;;;;;7.85;2.53;;;14.50;36.60;;;;;;5093899;28;20059;-65
2021/04/04 11:46:05;;;;;;;7.65;2.78;;;14.80;36.80;;;;;;5092637;28;20024;-65
2021/04/04 11:48:31;;;;;;;6.47;2.70;;;15.20;36.50;;;;;;5093505;28;20028;-65
2021/04/04 11:51:12;;;;;;;4.43;2.72;;;15.50;35.40;;;;;;5092591;28;20030;-68
2021/04/04 11:53:45;;;;;;;5.68;3.15;;;15.70;34.80;;;;;;5093936;28;20040;-77
2021/04/04 11:56:42;;;;;;;5.10;2.80;;;16.10;33.80;;;;;;5093019;28;20028;-73
2021/04/04 11:59:08;;;;;;;6.00;2.75;;;16.30;34.00;;;;;;5092972;28;20028;-70
2021/04/04 12:01:34;;;;;;;7.32;2.97;;;16.60;33.70;;;;;;5093544;28;20032;-72
2021/04/04 12:04:29;;;;;;;8.30;2.80;;;16.60;33.30;;;;;;5093018;28;20127;-74
2021/04/04 12:07:06;;;;;;;5.82;2.80;;;16.40;33.00;;;;;;5068799;28;20036;-72
2021/04/04 12:09:34;;;;;;;3.70;2.67;;;16.30;33.70;;;;;;5093769;28;20115;-70
2021/04/04 12:12:00;;;;;;;6.47;2.55;;;16.30;33.40;;;;;;5093352;28;20370;-75
2021/04/04 12:14:26;;;;;;;3.70;2.25;;;16.30;34.20;;;;;;5075067;28;20035;-70
2021/04/04 12:16:52;;;;;;;5.30;2.75;;;16.30;33.10;;;;;;5093183;28;20916;-67
2021/04/04 12:19:31;;;;;;;5.60;2.22;;;16.40;32.40;;;;;;5092293;28;20024;-64
2021/04/04 12:21:58;;;;;;;6.20;2.47;;;16.80;31.70;;;;;;5093251;28;20103;-65
2021/04/04 12:24:43;;;;;;;6.18;2.58;;;16.80;31.10;;;;;;5091997;28;20040;-64
2021/04/04 12:27:11;;;;;;;5.28;2.72;;;16.80;31.90;;;;;;5074212;28;20039;-64
2021/04/04 12:29:47;;;;;;;5.43;2.65;;;16.90;32.90;;;;;;5093244;28;20024;-63
2021/04/04 12:32:19;;;;;;;4.43;2.90;;;17.00;31.50;;;;;;5091948;28;20020;-61
2021/04/04 12:34:47;;;;;;;6.95;3.17;;;17.10;31.50;;;;;;5092582;28;20484;-64
2021/04/04 12:37:17;;;;;;;6.15;2.90;;;17.00;31.50;;;;;;5073974;28;20032;-66
2021/04/04 12:39:44;;;;;;;7.18;2.90;;;17.10;32.00;;;;;;5085385;28;20107;-65
2021/04/04 12:42:15;;;;;;;5.43;2.85;;;17.00;32.10;;;;;;5091235;28;20059;-64
2021/04/04 12:44:44;;;;;;;6.60;3.17;;;16.50;31.60;;;;;;5091210;28;20036;-67
2021/04/04 12:47:12;;;;;;;5.68;3.35;;;16.40;32.50;;;;;;5078902;28;20381;-64
2021/04/04 12:49:39;;;;;;;4.88;3.08;;;16.40;32.70;;;;;;5091579;28;20028;-63
2021/04/04 12:52:07;;;;;;;5.32;2.83;;;16.50;33.20;;;;;;5091182;28;20024;-65
2021/04/04 12:54:33;;;;;;;4.82;2.75;;;16.90;33.20;;;;;;5092442;28;20020;-63
2021/04/04 12:56:59;;;;;;;5.30;2.58;;;17.20;32.70;;;;;;5092579;28;20035;-65
2021/04/04 12:59:24;;;;;;;5.85;2.55;;;17.30;32.90;;;;;;5091870;28;20028;-64
2021/04/04 13:01:54;;;;;;;5.20;2.72;;;17.40;32.00;;;;;;5092613;28;20046;-63
2021/04/04 13:04:25;;;;;;;6.43;3.03;;;17.60;30.80;;;;;;5091133;28;20032;-63
2021/04/04 13:06:52;;;;;;;4.30;2.70;;;17.60;30.80;;;;;;5092087;28;20081;-66
2021/04/04 13:09:19;;;;;;;5.40;2.65;;;17.40;30.70;;;;;;5091552;28;20042;-77
2021/04/04 13:11:45;;;;;;;4.53;2.42;;;17.50;31.70;;;;;;5092216;28;20120;-77
2021/04/04 13:14:15;;;;;;;4.32;2.85;;;17.60;31.50;;;;;;5091943;28;20177;-72
2021/04/04 13:16:42;;;;;;;7.63;2.95;;;17.60;30.00;;;;;;5091736;28;20028;-74